createdAt,value
2022-09-26T00:00:44.298Z,979.94
2022-09-26T00:01:44.363Z,979.95
2022-09-26T00:02:44.383Z,979.96
2022-09-26T00:03:44.275Z,979.95
2022-09-26T00:04:44.258Z,979.93
2022-09-26T00:05:44.759Z,979.93
2022-09-26T00:06:44.266Z,979.91
2022-09-26T00:07:44.233Z,979.80
2022-09-26T00:08:44.209Z,979.87
2022-09-26T00:09:44.208Z,979.88
2022-09-26T00:10:44.188Z,979.87
2022-09-26T00:11:44.219Z,979.85
2022-09-26T00:12:44.810Z,979.87
2022-09-26T00:13:44.166Z,979.88
2022-09-26T00:14:44.178Z,979.88
2022-09-26T00:15:44.141Z,979.80
2022-09-26T00:16:44.261Z,979.84
2022-09-26T00:17:44.121Z,979.83
2022-09-26T00:18:44.101Z,979.82
2022-09-26T00:19:44.101Z,979.81
2022-09-26T00:20:44.081Z,979.79
2022-09-26T00:21:44.113Z,979.77
2022-09-26T00:22:44.069Z,979.79
2022-09-26T00:23:44.055Z,979.78
2022-09-26T00:24:44.042Z,979.76
2022-09-26T00:25:44.052Z,979.80
2022-09-26T00:26:44.051Z,979.79
2022-09-26T00:27:44.013Z,979.79
2022-09-26T00:28:44.002Z,979.82
2022-09-26T00:29:44.033Z,979.81
2022-09-26T00:30:44.000Z,979.77
2022-09-26T00:31:43.976Z,979.75
2022-09-26T00:32:43.952Z,979.81
2022-09-26T00:33:43.954Z,979.84
2022-09-26T00:34:43.972Z,979.77
2022-09-26T00:35:43.933Z,979.78
2022-09-26T00:36:43.916Z,979.76
2022-09-26T00:37:43.905Z,979.74
2022-09-26T00:38:43.895Z,979.73
2022-09-26T00:39:43.914Z,979.82
2022-09-26T00:40:43.890Z,979.84
2022-09-26T00:41:43.872Z,979.88
2022-09-26T00:42:43.844Z,979.88
2022-09-26T00:43:43.846Z,979.87
2022-09-26T00:44:43.881Z,979.83
2022-09-26T00:45:43.881Z,979.89
2022-09-26T00:46:43.813Z,979.85
2022-09-26T00:47:43.796Z,979.87
2022-09-26T00:48:43.786Z,979.83
2022-09-26T00:49:43.776Z,979.85
2022-09-26T00:50:43.796Z,979.86
2022-09-26T00:51:43.788Z,979.79
2022-09-26T00:52:43.736Z,979.80
2022-09-26T00:53:43.746Z,979.79
2022-09-26T00:54:43.748Z,979.72
2022-09-26T00:55:43.717Z,979.80
2022-09-26T00:56:43.726Z,979.80
2022-09-26T00:57:43.687Z,979.78
2022-09-26T00:58:43.677Z,979.80
2022-09-26T00:59:43.671Z,979.78
2022-09-26T01:00:43.657Z,979.77
2022-09-26T01:01:43.813Z,979.81
2022-09-26T01:02:43.714Z,979.77
2022-09-26T01:03:43.628Z,979.74
2022-09-26T01:04:43.610Z,979.74
2022-09-26T01:05:43.618Z,979.75
2022-09-26T01:06:43.628Z,979.68
2022-09-26T01:07:43.589Z,979.69
2022-09-26T01:08:43.576Z,979.66
2022-09-26T01:09:43.569Z,979.66
2022-09-26T01:10:43.550Z,979.68
2022-09-26T01:11:43.569Z,979.65
2022-09-26T01:12:43.560Z,979.66
2022-09-26T01:13:43.529Z,979.63
2022-09-26T01:14:43.510Z,979.59
2022-09-26T01:15:43.538Z,979.64
2022-09-26T01:16:43.537Z,979.67
2022-09-26T01:17:43.511Z,979.56
2022-09-26T01:18:43.485Z,979.56
2022-09-26T01:19:43.468Z,979.52
2022-09-26T01:20:43.442Z,979.60
2022-09-26T01:21:43.441Z,979.55
2022-09-26T01:22:43.422Z,979.59
2022-09-26T01:23:43.421Z,979.58
2022-09-26T01:24:43.400Z,979.60
2022-09-26T01:25:43.391Z,979.70
2022-09-26T01:26:43.438Z,979.63
2022-09-26T01:27:43.371Z,979.67
2022-09-26T01:28:43.383Z,979.65
2022-09-26T01:29:43.354Z,979.72
2022-09-26T01:30:43.399Z,979.67
2022-09-26T01:31:43.331Z,979.68
2022-09-26T01:32:43.363Z,979.69
2022-09-26T01:33:43.290Z,979.71
2022-09-26T01:34:43.291Z,979.68
2022-09-26T01:35:43.299Z,979.64
2022-09-26T01:36:43.267Z,979.67
2022-09-26T01:37:43.261Z,979.71
2022-09-26T01:38:43.253Z,979.67
2022-09-26T01:39:43.233Z,979.67
2022-09-26T01:40:43.320Z,979.72
2022-09-26T01:41:43.230Z,979.69
2022-09-26T01:42:43.212Z,979.70
2022-09-26T01:43:43.181Z,979.72
2022-09-26T01:44:43.183Z,979.78
2022-09-26T01:45:43.225Z,979.75
2022-09-26T01:46:43.162Z,979.72
2022-09-26T01:47:43.157Z,979.68
2022-09-26T01:48:43.134Z,979.73
2022-09-26T01:49:43.131Z,979.69
2022-09-26T01:50:43.122Z,979.69
2022-09-26T01:51:43.112Z,979.71
2022-09-26T01:52:43.110Z,979.71
2022-09-26T01:53:43.073Z,979.68
2022-09-26T01:54:43.071Z,979.67
2022-09-26T01:55:43.054Z,979.74
2022-09-26T01:56:43.073Z,979.66
2022-09-26T01:57:43.044Z,979.66
2022-09-26T01:58:43.024Z,979.70
2022-09-26T01:59:43.006Z,979.68
2022-09-26T02:00:43.050Z,979.65
2022-09-26T02:01:43.092Z,979.65
2022-09-26T02:02:43.072Z,979.65
2022-09-26T02:03:42.964Z,979.63
2022-09-26T02:04:42.983Z,979.67
2022-09-26T02:05:42.963Z,979.62
2022-09-26T02:06:42.941Z,979.58
2022-09-26T02:07:42.947Z,979.64
2022-09-26T02:08:42.924Z,979.61
2022-09-26T02:09:42.918Z,979.64
2022-09-26T02:10:42.925Z,979.63
2022-09-26T02:11:42.895Z,979.68
2022-09-26T02:12:42.877Z,979.65
2022-09-26T02:13:42.883Z,979.61
2022-09-26T02:14:42.867Z,979.63
2022-09-26T02:15:42.867Z,979.66
2022-09-26T02:16:42.925Z,979.61
2022-09-26T02:17:42.839Z,979.63
2022-09-26T02:18:42.827Z,979.56
2022-09-26T02:19:42.828Z,979.53
2022-09-26T02:20:42.808Z,979.51
2022-09-26T02:21:42.776Z,979.47
2022-09-26T02:22:42.767Z,979.52
2022-09-26T02:23:42.767Z,979.53
2022-09-26T02:24:42.751Z,979.55
2022-09-26T02:25:42.758Z,979.54
2022-09-26T02:26:42.730Z,979.50
2022-09-26T02:27:42.730Z,979.54
2022-09-26T02:28:42.727Z,979.52
2022-09-26T02:29:42.706Z,979.52
2022-09-26T02:30:42.709Z,979.52
2022-09-26T02:31:42.783Z,979.51
2022-09-26T02:32:42.681Z,979.50
2022-09-26T02:33:42.677Z,979.49
2022-09-26T02:34:42.652Z,979.49
2022-09-26T02:35:42.630Z,979.50
2022-09-26T02:36:42.622Z,979.44
2022-09-26T02:37:42.640Z,979.46
2022-09-26T02:38:43.270Z,979.42
2022-09-26T02:39:42.602Z,979.38
2022-09-26T02:40:42.669Z,979.39
2022-09-26T02:41:42.579Z,979.38
2022-09-26T02:42:42.571Z,979.34
2022-09-26T02:43:42.570Z,979.35
2022-09-26T02:44:42.553Z,979.34
2022-09-26T02:45:42.565Z,979.34
2022-09-26T02:46:42.522Z,979.36
2022-09-26T02:47:42.542Z,979.40
2022-09-26T02:48:42.502Z,979.40
2022-09-26T02:49:42.510Z,979.40
2022-09-26T02:50:42.494Z,979.40
2022-09-26T02:51:42.492Z,979.42
2022-09-26T02:52:42.464Z,979.30
2022-09-26T02:53:42.447Z,979.32
2022-09-26T02:54:42.442Z,979.29
2022-09-26T02:55:42.423Z,979.27
2022-09-26T02:56:42.432Z,979.33
2022-09-26T02:57:42.414Z,979.32
2022-09-26T02:58:42.394Z,979.33
2022-09-26T02:59:42.374Z,979.31
2022-09-26T03:00:42.414Z,979.33
2022-09-26T03:01:42.421Z,979.28
2022-09-26T03:02:42.344Z,979.22
2022-09-26T03:03:42.366Z,979.27
2022-09-26T03:04:42.373Z,979.27
2022-09-26T03:05:42.315Z,979.23
2022-09-26T03:06:42.304Z,979.26
2022-09-26T03:07:42.317Z,979.22
2022-09-26T03:08:42.296Z,979.20
2022-09-26T03:09:42.296Z,979.17
2022-09-26T03:10:42.269Z,979.15
2022-09-26T03:11:42.266Z,979.15
2022-09-26T03:12:42.265Z,979.06
2022-09-26T03:13:42.233Z,979.00
2022-09-26T03:14:42.233Z,978.95
2022-09-26T03:15:42.236Z,979.01
2022-09-26T03:16:42.289Z,978.95
2022-09-26T03:17:42.178Z,978.89
2022-09-26T03:18:42.187Z,978.94
2022-09-26T03:19:42.175Z,978.94
2022-09-26T03:20:42.194Z,978.92
2022-09-26T03:21:42.138Z,978.97
2022-09-26T03:22:42.139Z,978.94
2022-09-26T03:23:42.117Z,978.91
2022-09-26T03:24:42.108Z,978.94
2022-09-26T03:25:42.109Z,978.92
2022-09-26T03:26:42.111Z,978.88
2022-09-26T03:27:42.068Z,978.83
2022-09-26T03:28:42.079Z,978.86
2022-09-26T03:29:42.081Z,978.86
2022-09-26T03:30:42.075Z,978.86
2022-09-26T03:31:42.072Z,978.89
2022-09-26T03:32:42.049Z,978.86
2022-09-26T03:33:42.039Z,978.87
2022-09-26T03:34:42.019Z,978.88
2022-09-26T03:35:42.001Z,978.84
2022-09-26T03:36:41.990Z,978.77
2022-09-26T03:37:41.980Z,978.81
2022-09-26T03:38:41.988Z,978.82
2022-09-26T03:39:41.960Z,978.80
2022-09-26T03:40:42.016Z,978.80
2022-09-26T03:41:41.931Z,978.81
2022-09-26T03:42:41.921Z,978.77
2022-09-26T03:43:41.931Z,978.72
2022-09-26T03:44:41.932Z,978.68
2022-09-26T03:45:41.914Z,978.77
2022-09-26T03:46:41.891Z,978.72
2022-09-26T03:47:41.923Z,978.71
2022-09-26T03:48:41.852Z,978.61
2022-09-26T03:49:41.862Z,978.66
2022-09-26T03:50:41.853Z,978.66
2022-09-26T03:51:41.823Z,978.64
2022-09-26T03:52:41.852Z,978.64
2022-09-26T03:53:41.814Z,978.64
2022-09-26T03:54:41.793Z,978.66
2022-09-26T03:55:41.804Z,978.62
2022-09-26T03:56:41.792Z,978.60
2022-09-26T03:57:41.834Z,978.59
2022-09-26T03:58:41.768Z,978.59
2022-09-26T03:59:41.744Z,978.50
2022-09-26T04:00:41.818Z,978.53
2022-09-26T04:01:41.721Z,978.52
2022-09-26T04:02:41.758Z,978.52
2022-09-26T04:03:45.205Z,978.57
2022-09-26T04:04:42.686Z,978.53
2022-09-26T04:05:41.685Z,978.51
2022-09-26T04:06:41.665Z,978.54
2022-09-26T04:07:41.665Z,978.58
2022-09-26T04:08:41.679Z,978.53
2022-09-26T04:09:41.626Z,978.53
2022-09-26T04:10:41.637Z,978.54
2022-09-26T04:11:41.607Z,978.50
2022-09-26T04:12:41.596Z,978.48
2022-09-26T04:13:51.436Z,978.49
2022-09-26T04:14:42.576Z,978.47
2022-09-26T04:15:41.576Z,978.46
2022-09-26T04:16:41.623Z,978.44
2022-09-26T04:17:41.537Z,978.47
2022-09-26T04:18:41.537Z,978.39
2022-09-26T04:19:41.524Z,978.41
2022-09-26T04:20:41.547Z,978.34
2022-09-26T04:21:41.515Z,978.30
2022-09-26T04:22:41.496Z,978.33
2022-09-26T04:23:41.477Z,978.34
2022-09-26T04:24:41.478Z,978.33
2022-09-26T04:25:41.468Z,978.24
2022-09-26T04:26:41.468Z,978.32
2022-09-26T04:27:41.458Z,978.24
2022-09-26T04:28:41.438Z,978.27
2022-09-26T04:29:41.416Z,978.21
2022-09-26T04:30:41.418Z,978.20
2022-09-26T04:31:41.463Z,978.19
2022-09-26T04:32:41.399Z,978.25
2022-09-26T04:33:41.390Z,978.20
2022-09-26T04:34:41.386Z,978.12
2022-09-26T04:35:41.389Z,978.15
2022-09-26T04:36:41.351Z,978.14
2022-09-26T04:37:41.330Z,978.12
2022-09-26T04:38:41.352Z,978.12
2022-09-26T04:39:41.321Z,978.14
2022-09-26T04:40:42.927Z,978.11
2022-09-26T04:41:41.281Z,978.11
2022-09-26T04:42:41.290Z,978.09
2022-09-26T04:43:41.302Z,978.09
2022-09-26T04:44:41.260Z,978.07
2022-09-26T04:45:41.329Z,978.07
2022-09-26T04:46:41.253Z,978.12
2022-09-26T04:47:41.219Z,978.12
2022-09-26T04:48:41.232Z,978.13
2022-09-26T04:49:41.235Z,978.09
2022-09-26T04:50:41.191Z,978.10
2022-09-26T04:51:41.191Z,978.05
2022-09-26T04:52:41.201Z,978.02
2022-09-26T04:53:41.164Z,978.03
2022-09-26T04:54:41.144Z,978.01
2022-09-26T04:55:41.153Z,978.09
2022-09-26T04:56:41.133Z,977.99
2022-09-26T04:57:41.152Z,977.95
2022-09-26T04:58:41.125Z,978.03
2022-09-26T04:59:41.093Z,977.99
2022-09-26T05:00:41.121Z,978.02
2022-09-26T05:01:41.143Z,978.04
2022-09-26T05:02:41.166Z,978.03
2022-09-26T05:03:41.043Z,977.97
2022-09-26T05:04:41.073Z,977.99
2022-09-26T05:05:41.053Z,978.01
2022-09-26T05:06:41.038Z,978.03
2022-09-26T05:07:41.023Z,977.89
2022-09-26T05:08:41.013Z,977.93
2022-09-26T05:09:41.004Z,977.91
2022-09-26T05:10:40.994Z,977.96
2022-09-26T05:11:40.966Z,977.86
2022-09-26T05:12:40.964Z,977.92
2022-09-26T05:13:40.952Z,977.95
2022-09-26T05:14:40.954Z,977.95
2022-09-26T05:15:40.932Z,977.91
2022-09-26T05:16:41.015Z,977.92
2022-09-26T05:17:40.904Z,977.95
2022-09-26T05:18:40.907Z,977.93
2022-09-26T05:19:40.876Z,977.97
2022-09-26T05:20:40.867Z,977.94
2022-09-26T05:21:40.858Z,978.03
2022-09-26T05:22:40.867Z,977.96
2022-09-26T05:23:44.553Z,977.98
2022-09-26T05:24:40.828Z,977.99
2022-09-26T05:25:40.825Z,977.97
2022-09-26T05:26:40.806Z,978.01
2022-09-26T05:27:40.789Z,977.95
2022-09-26T05:28:40.797Z,977.96
2022-09-26T05:29:40.776Z,977.94
2022-09-26T05:30:40.784Z,977.98
2022-09-26T05:31:40.841Z,977.98
2022-09-26T05:32:40.749Z,977.94
2022-09-26T05:33:40.737Z,977.88
2022-09-26T05:34:40.734Z,977.89
2022-09-26T05:35:40.717Z,977.86
2022-09-26T05:36:40.709Z,977.78
2022-09-26T05:37:40.700Z,977.87
2022-09-26T05:38:40.708Z,977.79
2022-09-26T05:39:42.622Z,977.80
2022-09-26T05:40:40.786Z,977.82
2022-09-26T05:41:40.658Z,977.87
2022-09-26T05:42:40.668Z,977.83
2022-09-26T05:43:40.638Z,977.80
2022-09-26T05:44:40.897Z,977.83
2022-09-26T05:45:40.608Z,977.85
2022-09-26T05:46:41.372Z,977.89
2022-09-26T05:47:40.630Z,977.90
2022-09-26T05:48:41.371Z,977.85
2022-09-26T05:49:40.593Z,977.81
2022-09-26T05:50:43.527Z,977.82
2022-09-26T05:51:40.568Z,977.79
2022-09-26T05:52:41.326Z,977.84
2022-09-26T05:53:40.550Z,977.81
2022-09-26T05:54:41.220Z,977.81
2022-09-26T05:55:40.595Z,977.80
2022-09-26T05:56:40.639Z,977.77
2022-09-26T05:57:40.478Z,977.82
2022-09-26T05:58:40.472Z,977.79
2022-09-26T05:59:40.469Z,977.78
2022-09-26T06:00:40.462Z,977.78
2022-09-26T06:01:40.505Z,977.79
2022-09-26T06:02:40.431Z,977.75
2022-09-26T06:03:40.422Z,977.69
2022-09-26T06:04:40.412Z,977.79
2022-09-26T06:05:40.389Z,977.77
2022-09-26T06:06:40.402Z,977.68
2022-09-26T06:07:40.833Z,977.74
2022-09-26T06:08:40.372Z,977.63
2022-09-26T06:09:40.353Z,977.72
2022-09-26T06:10:40.344Z,977.68
2022-09-26T06:11:40.353Z,977.66
2022-09-26T06:12:40.335Z,977.66
2022-09-26T06:13:40.305Z,977.64
2022-09-26T06:14:40.311Z,977.66
2022-09-26T06:15:40.295Z,977.71
2022-09-26T06:16:40.355Z,977.71
2022-09-26T06:17:40.275Z,977.68
2022-09-26T06:18:40.271Z,977.62
2022-09-26T06:19:40.254Z,977.67
2022-09-26T06:20:40.244Z,977.65
2022-09-26T06:21:40.268Z,977.70
2022-09-26T06:22:40.215Z,977.67
2022-09-26T06:23:40.239Z,977.72
2022-09-26T06:24:40.195Z,977.61
2022-09-26T06:25:40.185Z,977.63
2022-09-26T06:26:40.179Z,977.59
2022-09-26T06:27:40.165Z,977.60
2022-09-26T06:28:40.155Z,977.60
2022-09-26T06:29:40.164Z,977.55
2022-09-26T06:30:40.141Z,977.53
2022-09-26T06:31:40.192Z,977.55
2022-09-26T06:32:40.118Z,977.55
2022-09-26T06:33:40.107Z,977.46
2022-09-26T06:34:40.086Z,977.49
2022-09-26T06:35:40.094Z,977.49
2022-09-26T06:36:40.133Z,977.49
2022-09-26T06:37:40.047Z,977.53
2022-09-26T06:38:40.035Z,977.51
2022-09-26T06:39:40.040Z,977.50
2022-09-26T06:40:40.108Z,977.52
2022-09-26T06:41:40.009Z,977.52
2022-09-26T06:42:39.989Z,977.47
2022-09-26T06:43:39.998Z,977.49
2022-09-26T06:44:40.024Z,977.49
2022-09-26T06:45:39.978Z,977.50
2022-09-26T06:46:39.991Z,977.49
2022-09-26T06:47:39.946Z,977.51
2022-09-26T06:48:39.938Z,977.48
2022-09-26T06:49:39.920Z,977.50
2022-09-26T06:50:39.930Z,977.46
2022-09-26T06:51:39.907Z,977.50
2022-09-26T06:52:39.879Z,977.52
2022-09-26T06:53:39.912Z,977.41
2022-09-26T06:54:39.869Z,977.49
2022-09-26T06:55:39.871Z,977.45
2022-09-26T06:56:39.860Z,977.46
2022-09-26T06:57:39.839Z,977.50
2022-09-26T06:58:39.860Z,977.38
2022-09-26T06:59:39.818Z,977.45
2022-09-26T07:00:39.966Z,977.40
2022-09-26T07:01:39.996Z,977.41
2022-09-26T07:02:39.786Z,977.40
2022-09-26T07:03:45.112Z,977.43
2022-09-26T07:04:40.760Z,977.35
2022-09-26T07:05:39.772Z,977.40
2022-09-26T07:06:39.749Z,977.39
2022-09-26T07:07:39.731Z,977.34
2022-09-26T07:09:00.807Z,977.39
2022-09-26T07:09:40.710Z,977.36
2022-09-26T07:10:39.722Z,977.34
2022-09-26T07:12:02.685Z,977.36
2022-09-26T07:12:40.671Z,977.41
2022-09-26T07:13:39.723Z,977.38
2022-09-26T07:14:39.692Z,977.33
2022-09-26T07:15:39.643Z,977.37
2022-09-26T07:16:39.694Z,977.35
2022-09-26T07:17:39.643Z,977.44
2022-09-26T07:18:39.614Z,977.38
2022-09-26T07:19:39.621Z,977.43
2022-09-26T07:20:39.594Z,977.40
2022-09-26T07:21:39.592Z,977.42
2022-09-26T07:22:39.574Z,977.41
2022-09-26T07:23:39.582Z,977.40
2022-09-26T07:24:39.574Z,977.41
2022-09-26T07:25:39.565Z,977.38
2022-09-26T07:26:39.534Z,977.45
2022-09-26T07:27:39.575Z,977.28
2022-09-26T07:28:39.525Z,977.24
2022-09-26T07:29:39.505Z,977.27
2022-09-26T07:30:39.485Z,977.20
2022-09-26T07:31:39.581Z,977.19
2022-09-26T07:32:39.456Z,977.24
2022-09-26T07:33:39.453Z,977.14
2022-09-26T07:34:39.459Z,977.22
2022-09-26T07:35:39.479Z,977.23
2022-09-26T07:36:39.441Z,977.22
2022-09-26T07:37:39.418Z,977.15
2022-09-26T07:38:39.408Z,977.15
2022-09-26T07:39:39.497Z,977.14
2022-09-26T07:40:39.405Z,977.14
2022-09-26T07:41:39.377Z,977.13
2022-09-26T07:42:39.385Z,977.11
2022-09-26T07:45:20.394Z,977.06
2022-09-26T07:45:40.329Z,977.07
2022-09-26T07:46:39.385Z,977.06
2022-09-26T07:47:39.311Z,977.09
2022-09-26T07:48:39.298Z,977.01
2022-09-26T07:49:39.322Z,977.05
2022-09-26T07:50:39.301Z,977.08
2022-09-26T07:51:39.259Z,977.07
2022-09-26T07:52:39.262Z,977.07
2022-09-26T07:53:39.260Z,977.05
2022-09-26T07:54:39.228Z,977.09
2022-09-26T07:55:39.233Z,977.12
2022-09-26T07:56:39.210Z,977.13
2022-09-26T07:57:39.210Z,977.10
2022-09-26T07:58:39.189Z,977.07
2022-09-26T07:59:39.198Z,977.07
2022-09-26T08:00:39.190Z,977.04
2022-09-26T08:01:39.257Z,977.08
2022-09-26T08:02:39.182Z,977.02
2022-09-26T08:03:39.142Z,977.00
2022-09-26T08:04:39.112Z,977.00
2022-09-26T08:05:39.140Z,976.99
2022-09-26T08:06:39.123Z,976.99
2022-09-26T08:07:39.101Z,976.98
2022-09-26T08:08:39.084Z,977.00
2022-09-26T08:09:39.083Z,976.99
2022-09-26T08:10:39.090Z,976.93
2022-09-26T08:11:39.043Z,976.95
2022-09-26T08:12:39.034Z,977.00
2022-09-26T08:13:39.035Z,977.02
2022-09-26T08:14:39.014Z,976.95
2022-09-26T08:15:39.109Z,976.94
2022-09-26T08:16:39.124Z,976.96
2022-09-26T08:17:38.984Z,976.93
2022-09-26T08:18:38.984Z,976.90
2022-09-26T08:19:38.962Z,976.99
2022-09-26T08:20:39.004Z,976.94
2022-09-26T08:21:38.942Z,976.84
2022-09-26T08:22:38.925Z,976.79
2022-09-26T08:23:38.927Z,976.82
2022-09-26T08:24:38.929Z,976.83
2022-09-26T08:25:38.906Z,976.83
2022-09-26T08:26:43.873Z,976.84
2022-09-26T08:27:39.886Z,976.83
2022-09-26T08:28:38.866Z,976.83
2022-09-26T08:29:38.854Z,976.82
2022-09-26T08:30:38.868Z,976.80
2022-09-26T08:31:38.901Z,976.85
2022-09-26T08:32:38.829Z,976.80
2022-09-26T08:33:39.030Z,976.81
2022-09-26T08:34:38.817Z,976.76
2022-09-26T08:35:38.789Z,976.80
2022-09-26T08:36:38.797Z,976.79
2022-09-26T08:37:38.788Z,976.79
2022-09-26T08:38:38.761Z,976.78
2022-09-26T08:39:38.738Z,976.74
2022-09-26T08:40:38.794Z,976.78
2022-09-26T08:41:38.739Z,976.74
2022-09-26T08:42:38.710Z,976.72
2022-09-26T08:43:38.722Z,976.76
2022-09-26T08:44:38.722Z,976.68
2022-09-26T08:45:42.094Z,976.58
2022-09-26T08:46:39.735Z,976.57
2022-09-26T08:47:39.084Z,976.61
2022-09-26T08:48:38.653Z,976.61
2022-09-26T08:49:39.370Z,976.65
2022-09-26T08:50:38.629Z,976.60
2022-09-26T08:51:39.370Z,976.66
2022-09-26T08:52:38.613Z,976.66
2022-09-26T08:53:39.237Z,976.55
2022-09-26T08:54:38.593Z,976.61
2022-09-26T08:55:38.673Z,976.54
2022-09-26T08:56:38.582Z,976.57
2022-09-26T08:57:38.551Z,976.58
2022-09-26T08:58:38.553Z,976.57
2022-09-26T08:59:38.532Z,976.57
2022-09-26T09:00:38.523Z,976.60
2022-09-26T09:01:38.691Z,976.56
2022-09-26T09:02:38.708Z,976.55
2022-09-26T09:03:38.494Z,976.53
2022-09-26T09:04:38.491Z,976.51
2022-09-26T09:05:38.465Z,976.54
2022-09-26T09:06:38.458Z,976.56
2022-09-26T09:07:38.445Z,976.54
2022-09-26T09:08:38.455Z,976.57
2022-09-26T09:09:38.454Z,976.53
2022-09-26T09:10:38.426Z,976.55
2022-09-26T09:11:38.428Z,976.52
2022-09-26T09:12:38.396Z,976.56
2022-09-26T09:13:38.383Z,976.55
2022-09-26T09:14:38.364Z,976.58
2022-09-26T09:15:38.431Z,976.50
2022-09-26T09:16:38.358Z,976.54
2022-09-26T09:17:38.437Z,976.51
2022-09-26T09:18:38.317Z,976.56
2022-09-26T09:19:38.334Z,976.51
2022-09-26T09:20:38.315Z,976.45
2022-09-26T09:21:41.831Z,976.49
2022-09-26T09:22:38.290Z,976.43
2022-09-26T09:23:38.287Z,976.37
2022-09-26T09:24:38.249Z,976.36
2022-09-26T09:25:38.257Z,976.40
2022-09-26T09:27:55.009Z,976.40
2022-09-26T09:28:39.227Z,976.34
2022-09-26T09:29:38.229Z,976.36
2022-09-26T09:30:38.189Z,976.38
2022-09-26T09:31:38.226Z,976.37
2022-09-26T09:32:38.179Z,976.35
2022-09-26T09:33:38.193Z,976.39
2022-09-26T09:34:38.164Z,976.26
2022-09-26T09:35:38.150Z,976.29
2022-09-26T09:36:38.130Z,976.26
2022-09-26T09:37:38.146Z,976.23
2022-09-26T09:38:38.112Z,976.20
2022-09-26T09:39:38.110Z,976.26
2022-09-26T09:40:38.196Z,976.21
2022-09-26T09:41:38.093Z,976.26
2022-09-26T09:42:38.061Z,976.20
2022-09-26T09:43:38.062Z,976.17
2022-09-26T09:44:39.391Z,976.20
2022-09-26T09:45:38.062Z,976.13
2022-09-26T09:46:38.101Z,976.14
2022-09-26T09:47:38.031Z,976.16
2022-09-26T09:48:37.993Z,976.20
2022-09-26T09:49:38.003Z,976.17
2022-09-26T09:50:37.991Z,976.13
2022-09-26T09:51:39.412Z,976.17
2022-09-26T09:52:37.983Z,976.13
2022-09-26T09:53:37.943Z,976.00
2022-09-26T09:54:39.493Z,976.00
2022-09-26T09:55:37.935Z,975.92
2022-09-26T09:56:38.634Z,975.92
2022-09-26T09:57:37.914Z,975.94
2022-09-26T09:58:38.916Z,975.98
2022-09-26T09:59:37.917Z,975.96
2022-09-26T10:00:38.895Z,975.92
2022-09-26T10:01:37.896Z,976.01
2022-09-26T10:02:37.937Z,975.97
2022-09-26T10:03:37.880Z,975.98
2022-09-26T10:04:37.844Z,975.94
2022-09-26T10:05:37.846Z,975.97
2022-09-26T10:06:45.503Z,975.91
2022-09-26T10:07:38.806Z,975.85
2022-09-26T10:08:37.798Z,975.85
2022-09-26T10:09:40.039Z,975.82
2022-09-26T10:10:37.779Z,975.84
2022-09-26T10:11:37.748Z,975.92
2022-09-26T10:12:37.758Z,975.84
2022-09-26T10:13:37.738Z,975.81
2022-09-26T10:14:37.738Z,975.76
2022-09-26T10:15:37.740Z,975.75
2022-09-26T10:16:37.718Z,975.83
2022-09-26T10:17:37.719Z,975.70
2022-09-26T10:18:37.679Z,975.79
2022-09-26T10:19:37.680Z,975.65
2022-09-26T10:20:37.669Z,975.72
2022-09-26T10:21:37.690Z,975.88
2022-09-26T10:22:37.680Z,975.67
2022-09-26T10:23:37.630Z,975.67
2022-09-26T10:24:37.640Z,975.66
2022-09-26T10:25:37.600Z,975.65
2022-09-26T10:26:37.591Z,975.72
2022-09-26T10:27:37.611Z,975.67
2022-09-26T10:28:37.570Z,975.71
2022-09-26T10:29:37.571Z,975.62
2022-09-26T10:30:37.571Z,975.58
2022-09-26T10:31:41.993Z,975.61
2022-09-26T10:32:38.529Z,975.50
2022-09-26T10:33:37.520Z,975.50
2022-09-26T10:34:37.524Z,975.52
2022-09-26T10:35:37.515Z,975.53
2022-09-26T10:36:37.485Z,975.50
2022-09-26T10:37:37.473Z,975.43
2022-09-26T10:38:37.474Z,975.48
2022-09-26T10:39:37.464Z,975.40
2022-09-26T10:40:37.570Z,975.46
2022-09-26T10:41:37.442Z,975.45
2022-09-26T10:42:37.424Z,975.41
2022-09-26T10:43:37.405Z,975.41
2022-09-26T10:44:37.416Z,975.43
2022-09-26T10:45:37.385Z,975.42
2022-09-26T10:46:37.446Z,975.43
2022-09-26T10:47:37.376Z,975.40
2022-09-26T10:48:37.356Z,975.36
2022-09-26T10:49:37.371Z,975.39
2022-09-26T10:50:37.337Z,975.37
2022-09-26T10:51:37.335Z,975.35
2022-09-26T10:52:37.325Z,975.35
2022-09-26T10:53:37.297Z,975.38
2022-09-26T10:54:37.312Z,975.35
2022-09-26T10:55:37.328Z,975.25
2022-09-26T10:56:37.287Z,975.24
2022-09-26T10:57:37.259Z,975.19
2022-09-26T10:58:37.270Z,975.26
2022-09-26T10:59:37.250Z,975.30
2022-09-26T11:00:37.249Z,975.17
2022-09-26T11:01:37.271Z,975.18
2022-09-26T11:02:37.240Z,975.12
2022-09-26T11:03:37.252Z,975.12
2022-09-26T11:04:37.228Z,975.14
2022-09-26T11:05:37.178Z,975.22
2022-09-26T11:06:37.191Z,975.18
2022-09-26T11:07:37.202Z,975.12
2022-09-26T11:08:37.149Z,975.16
2022-09-26T11:09:37.170Z,975.14
2022-09-26T11:10:37.141Z,975.06
2022-09-26T11:11:37.124Z,975.09
2022-09-26T11:12:37.112Z,975.08
2022-09-26T11:13:37.102Z,975.09
2022-09-26T11:14:37.103Z,975.02
2022-09-26T11:15:37.122Z,975.07
2022-09-26T11:16:37.461Z,975.01
2022-09-26T11:17:37.044Z,975.07
2022-09-26T11:18:37.054Z,975.09
2022-09-26T11:19:37.042Z,974.96
2022-09-26T11:20:37.022Z,975.01
2022-09-26T11:21:37.024Z,974.97
2022-09-26T11:22:37.005Z,974.86
2022-09-26T11:23:36.995Z,975.03
2022-09-26T11:24:36.986Z,974.96
2022-09-26T11:25:36.975Z,974.89
2022-09-26T11:26:36.955Z,974.96
2022-09-26T11:27:36.935Z,974.88
2022-09-26T11:28:36.936Z,975.02
2022-09-26T11:29:36.934Z,974.86
2022-09-26T11:30:36.916Z,974.84
2022-09-26T11:31:37.021Z,974.83
2022-09-26T11:32:36.917Z,974.90
2022-09-26T11:33:36.888Z,974.78
2022-09-26T11:34:36.895Z,974.73
2022-09-26T11:35:36.856Z,974.66
2022-09-26T11:36:36.854Z,974.58
2022-09-26T11:37:37.008Z,974.48
2022-09-26T11:38:36.828Z,974.53
2022-09-26T11:39:36.819Z,974.64
2022-09-26T11:40:36.947Z,974.54
2022-09-26T11:41:36.847Z,974.62
2022-09-26T11:42:36.791Z,974.64
2022-09-26T11:43:36.760Z,974.50
2022-09-26T11:44:36.750Z,974.57
2022-09-26T11:45:40.928Z,974.46
2022-09-26T11:46:37.824Z,974.51
2022-09-26T11:47:36.731Z,974.35
2022-09-26T11:48:36.723Z,974.46
2022-09-26T11:49:36.722Z,974.49
2022-09-26T11:50:36.692Z,974.40
2022-09-26T11:51:36.709Z,974.34
2022-09-26T11:52:36.692Z,974.38
2022-09-26T11:53:36.664Z,974.29
2022-09-26T11:54:36.654Z,974.27
2022-09-26T11:55:36.633Z,974.31
2022-09-26T11:56:36.647Z,974.29
2022-09-26T11:57:36.914Z,974.31
2022-09-26T11:58:36.612Z,974.53
2022-09-26T11:59:36.618Z,974.35
2022-09-26T12:00:36.592Z,974.43
2022-09-26T12:01:36.585Z,974.51
2022-09-26T12:02:36.706Z,974.53
2022-09-26T12:03:36.756Z,974.69
2022-09-26T12:04:36.549Z,974.66
2022-09-26T12:05:36.544Z,974.88
2022-09-26T12:06:36.538Z,974.90
2022-09-26T12:07:36.548Z,974.78
2022-09-26T12:08:36.506Z,974.74
2022-09-26T12:09:36.506Z,974.95
2022-09-26T12:10:36.497Z,974.71
2022-09-26T12:11:36.487Z,974.79
2022-09-26T12:12:40.459Z,974.77
2022-09-26T12:13:36.468Z,974.82
2022-09-26T12:14:36.445Z,974.84
2022-09-26T12:15:36.491Z,974.57
2022-09-26T12:16:36.436Z,974.58
2022-09-26T12:17:36.482Z,974.60
2022-09-26T12:18:36.439Z,974.52
2022-09-26T12:19:36.390Z,974.53
2022-09-26T12:20:36.390Z,974.47
2022-09-26T12:21:36.373Z,974.63
2022-09-26T12:22:36.396Z,974.35
2022-09-26T12:23:36.342Z,974.32
2022-09-26T12:24:36.363Z,974.36
2022-09-26T12:25:36.342Z,974.35
2022-09-26T12:26:36.321Z,974.17
2022-09-26T12:27:36.311Z,974.10
2022-09-26T12:28:36.283Z,974.08
2022-09-26T12:29:36.282Z,974.06
2022-09-26T12:30:36.294Z,974.02